sensor_id;sensor_type;location;lat;lon;timestamp;P1;durP1;ratioP1;P2;durP2;ratioP2
61015;SDS011;46902;52.920;6.536;2023-04-24T00:00:54;0.35;;;0.30;;
61015;SDS011;46902;52.920;6.536;2023-04-24T00:03:22;1.88;;;0.35;;
61015;SDS011;46902;52.920;6.536;2023-04-24T00:05:48;1.25;;;0.30;;
61015;SDS011;46902;52.920;6.536;2023-04-24T00:08:14;0.85;;;0.40;;
61015;SDS011;46902;52.920;6.536;2023-04-24T00:10:39;1.00;;;0.40;;
61015;SDS011;46902;52.920;6.536;2023-04-24T00:13:05;0.60;;;0.20;;
61015;SDS011;46902;52.920;6.536;2023-04-24T00:15:31;1.00;;;0.30;;
61015;SDS011;46902;52.920;6.536;2023-04-24T00:17:57;1.13;;;0.30;;
61015;SDS011;46902;52.920;6.536;2023-04-24T00:20:22;0.65;;;0.30;;
61015;SDS011;46902;52.920;6.536;2023-04-24T00:22:48;1.80;;;0.30;;
61015;SDS011;46902;52.920;6.536;2023-04-24T00:25:14;2.65;;;0.75;;
61015;SDS011;46902;52.920;6.536;2023-04-24T00:27:40;0.43;;;0.32;;
61015;SDS011;46902;52.920;6.536;2023-04-24T00:30:05;0.38;;;0.30;;
61015;SDS011;46902;52.920;6.536;2023-04-24T00:32:32;1.35;;;0.43;;
61015;SDS011;46902;52.920;6.536;2023-04-24T00:34:57;0.98;;;0.50;;
61015;SDS011;46902;52.920;6.536;2023-04-24T00:37:23;2.08;;;0.52;;
61015;SDS011;46902;52.920;6.536;2023-04-24T00:39:48;0.98;;;0.50;;
61015;SDS011;46902;52.920;6.536;2023-04-24T00:42:14;2.08;;;0.50;;
61015;SDS011;46902;52.920;6.536;2023-04-24T00:44:40;0.50;;;0.50;;
61015;SDS011;46902;52.920;6.536;2023-04-24T00:47:06;1.88;;;0.70;;
61015;SDS011;46902;52.920;6.536;2023-04-24T00:49:32;0.75;;;0.52;;
61015;SDS011;46902;52.920;6.536;2023-04-24T00:51:58;0.70;;;0.70;;
61015;SDS011;46902;52.920;6.536;2023-04-24T00:54:24;0.60;;;0.60;;
61015;SDS011;46902;52.920;6.536;2023-04-24T00:56:50;1.60;;;1.02;;
61015;SDS011;46902;52.920;6.536;2023-04-24T00:59:16;1.08;;;0.90;;
61015;SDS011;46902;52.920;6.536;2023-04-24T01:01:43;1.63;;;1.08;;
61015;SDS011;46902;52.920;6.536;2023-04-24T01:04:09;1.58;;;1.10;;
61015;SDS011;46902;52.920;6.536;2023-04-24T01:06:37;1.70;;;1.38;;
61015;SDS011;46902;52.920;6.536;2023-04-24T01:09:04;2.45;;;1.67;;
61015;SDS011;46902;52.920;6.536;2023-04-24T01:11:30;2.10;;;1.70;;
61015;SDS011;46902;52.920;6.536;2023-04-24T01:13:56;2.10;;;1.90;;
61015;SDS011;46902;52.920;6.536;2023-04-24T01:16:22;2.08;;;1.88;;
61015;SDS011;46902;52.920;6.536;2023-04-24T01:18:47;2.15;;;2.00;;
61015;SDS011;46902;52.920;6.536;2023-04-24T01:21:14;2.60;;;2.15;;
61015;SDS011;46902;52.920;6.536;2023-04-24T01:23:42;2.67;;;2.47;;
61015;SDS011;46902;52.920;6.536;2023-04-24T01:26:08;2.88;;;2.67;;
61015;SDS011;46902;52.920;6.536;2023-04-24T01:28:34;3.03;;;2.72;;
61015;SDS011;46902;52.920;6.536;2023-04-24T01:30:59;3.67;;;3.10;;
61015;SDS011;46902;52.920;6.536;2023-04-24T01:33:25;3.70;;;3.35;;
61015;SDS011;46902;52.920;6.536;2023-04-24T01:35:51;4.45;;;3.67;;
61015;SDS011;46902;52.920;6.536;2023-04-24T01:38:17;4.57;;;4.10;;
61015;SDS011;46902;52.920;6.536;2023-04-24T01:40:43;5.00;;;4.05;;
61015;SDS011;46902;52.920;6.536;2023-04-24T01:43:08;4.65;;;4.25;;
61015;SDS011;46902;52.920;6.536;2023-04-24T01:45:34;5.13;;;4.63;;
61015;SDS011;46902;52.920;6.536;2023-04-24T01:48:00;5.22;;;4.43;;
61015;SDS011;46902;52.920;6.536;2023-04-24T01:50:26;5.45;;;4.90;;
61015;SDS011;46902;52.920;6.536;2023-04-24T01:52:51;5.00;;;4.60;;
61015;SDS011;46902;52.920;6.536;2023-04-24T01:55:17;5.57;;;5.07;;
61015;SDS011;46902;52.920;6.536;2023-04-24T01:57:43;5.20;;;4.80;;
61015;SDS011;46902;52.920;6.536;2023-04-24T02:00:08;5.22;;;4.82;;
61015;SDS011;46902;52.920;6.536;2023-04-24T02:02:36;5.00;;;4.60;;
61015;SDS011;46902;52.920;6.536;2023-04-24T02:05:05;6.55;;;5.00;;
61015;SDS011;46902;52.920;6.536;2023-04-24T02:07:31;5.55;;;5.05;;
61015;SDS011;46902;52.920;6.536;2023-04-24T02:09:57;4.43;;;4.10;;
61015;SDS011;46902;52.920;6.536;2023-04-24T02:12:23;4.90;;;4.50;;
61015;SDS011;46902;52.920;6.536;2023-04-24T02:14:48;5.35;;;4.25;;
61015;SDS011;46902;52.920;6.536;2023-04-24T02:17:14;4.93;;;4.50;;
61015;SDS011;46902;52.920;6.536;2023-04-24T02:19:41;4.45;;;4.10;;
61015;SDS011;46902;52.920;6.536;2023-04-24T02:22:06;4.55;;;4.15;;
61015;SDS011;46902;52.920;6.536;2023-04-24T02:24:32;4.03;;;3.72;;
61015;SDS011;46902;52.920;6.536;2023-04-24T02:26:58;4.07;;;3.78;;
61015;SDS011;46902;52.920;6.536;2023-04-24T02:29:23;4.55;;;4.03;;
61015;SDS011;46902;52.920;6.536;2023-04-24T02:31:49;4.60;;;4.20;;
61015;SDS011;46902;52.920;6.536;2023-04-24T02:34:15;5.10;;;4.60;;
61015;SDS011;46902;52.920;6.536;2023-04-24T02:36:41;4.78;;;4.07;;
61015;SDS011;46902;52.920;6.536;2023-04-24T02:39:07;5.50;;;4.63;;
61015;SDS011;46902;52.920;6.536;2023-04-24T02:41:33;4.40;;;4.07;;
61015;SDS011;46902;52.920;6.536;2023-04-24T02:43:58;4.20;;;3.80;;
61015;SDS011;46902;52.920;6.536;2023-04-24T02:46:24;4.78;;;4.38;;
61015;SDS011;46902;52.920;6.536;2023-04-24T02:48:50;5.72;;;3.58;;
61015;SDS011;46902;52.920;6.536;2023-04-24T02:51:16;4.57;;;3.80;;
61015;SDS011;46902;52.920;6.536;2023-04-24T02:53:41;3.63;;;3.33;;
61015;SDS011;46902;52.920;6.536;2023-04-24T02:56:07;4.30;;;3.90;;
61015;SDS011;46902;52.920;6.536;2023-04-24T02:58:33;4.38;;;3.50;;
61015;SDS011;46902;52.920;6.536;2023-04-24T03:00:59;5.32;;;3.53;;
61015;SDS011;46902;52.920;6.536;2023-04-24T03:03:25;4.28;;;3.50;;
61015;SDS011;46902;52.920;6.536;2023-04-24T03:05:51;4.20;;;3.08;;
61015;SDS011;46902;52.920;6.536;2023-04-24T03:08:17;3.33;;;3.03;;
61015;SDS011;46902;52.920;6.536;2023-04-24T03:10:43;5.45;;;2.65;;
61015;SDS011;46902;52.920;6.536;2023-04-24T03:13:09;2.95;;;2.40;;
61015;SDS011;46902;52.920;6.536;2023-04-24T03:15:34;3.70;;;2.53;;
61015;SDS011;46902;52.920;6.536;2023-04-24T03:18:00;2.85;;;2.38;;
61015;SDS011;46902;52.920;6.536;2023-04-24T03:20:26;2.42;;;2.17;;
61015;SDS011;46902;52.920;6.536;2023-04-24T03:22:52;2.53;;;2.25;;
61015;SDS011;46902;52.920;6.536;2023-04-24T03:25:17;2.65;;;2.28;;
61015;SDS011;46902;52.920;6.536;2023-04-24T03:27:43;4.22;;;2.50;;
61015;SDS011;46902;52.920;6.536;2023-04-24T03:30:09;2.80;;;2.50;;
61015;SDS011;46902;52.920;6.536;2023-04-24T03:32:35;3.08;;;2.78;;
61015;SDS011;46902;52.920;6.536;2023-04-24T03:35:01;4.18;;;3.40;;
61015;SDS011;46902;52.920;6.536;2023-04-24T03:37:26;3.25;;;2.70;;
61015;SDS011;46902;52.920;6.536;2023-04-24T03:39:52;3.55;;;2.95;;
61015;SDS011;46902;52.920;6.536;2023-04-24T03:42:18;3.40;;;3.10;;
61015;SDS011;46902;52.920;6.536;2023-04-24T03:44:43;3.97;;;3.50;;
61015;SDS011;46902;52.920;6.536;2023-04-24T03:47:09;4.40;;;3.70;;
61015;SDS011;46902;52.920;6.536;2023-04-24T03:49:35;4.32;;;3.92;;
61015;SDS011;46902;52.920;6.536;2023-04-24T03:52:00;3.85;;;3.45;;
61015;SDS011;46902;52.920;6.536;2023-04-24T03:54:26;5.32;;;4.28;;
61015;SDS011;46902;52.920;6.536;2023-04-24T03:56:52;6.72;;;4.25;;
61015;SDS011;46902;52.920;6.536;2023-04-24T03:59:18;4.38;;;3.97;;
61015;SDS011;46902;52.920;6.536;2023-04-24T04:01:43;6.00;;;4.15;;
61015;SDS011;46902;52.920;6.536;2023-04-24T04:04:10;4.30;;;4.00;;
61015;SDS011;46902;52.920;6.536;2023-04-24T04:06:36;5.90;;;4.00;;
61015;SDS011;46902;52.920;6.536;2023-04-24T04:09:02;3.78;;;3.47;;
61015;SDS011;46902;52.920;6.536;2023-04-24T04:11:28;4.00;;;3.60;;
61015;SDS011;46902;52.920;6.536;2023-04-24T04:13:55;4.13;;;2.80;;
61015;SDS011;46902;52.920;6.536;2023-04-24T04:16:21;4.32;;;2.88;;
61015;SDS011;46902;52.920;6.536;2023-04-24T04:18:47;2.45;;;1.92;;
61015;SDS011;46902;52.920;6.536;2023-04-24T04:21:13;1.77;;;1.48;;
61015;SDS011;46902;52.920;6.536;2023-04-24T04:23:39;1.63;;;1.20;;
61015;SDS011;46902;52.920;6.536;2023-04-24T04:26:04;3.33;;;1.10;;
61015;SDS011;46902;52.920;6.536;2023-04-24T04:28:30;1.55;;;0.88;;
61015;SDS011;46902;52.920;6.536;2023-04-24T04:30:57;0.68;;;0.60;;
61015;SDS011;46902;52.920;6.536;2023-04-24T04:33:23;1.38;;;0.73;;
61015;SDS011;46902;52.920;6.536;2023-04-24T04:35:50;0.98;;;0.50;;
61015;SDS011;46902;52.920;6.536;2023-04-24T04:38:18;1.85;;;0.60;;
61015;SDS011;46902;52.920;6.536;2023-04-24T04:40:44;0.57;;;0.50;;
61015;SDS011;46902;52.920;6.536;2023-04-24T04:43:10;1.23;;;0.45;;
61015;SDS011;46902;52.920;6.536;2023-04-24T04:45:36;3.03;;;0.70;;
61015;SDS011;46902;52.920;6.536;2023-04-24T04:48:04;0.88;;;0.60;;
61015;SDS011;46902;52.920;6.536;2023-04-24T04:50:31;1.27;;;0.70;;
61015;SDS011;46902;52.920;6.536;2023-04-24T04:52:56;1.88;;;0.75;;
61015;SDS011;46902;52.920;6.536;2023-04-24T04:55:22;1.02;;;0.80;;
61015;SDS011;46902;52.920;6.536;2023-04-24T04:57:47;1.48;;;0.95;;
61015;SDS011;46902;52.920;6.536;2023-04-24T05:00:13;1.17;;;1.08;;
61015;SDS011;46902;52.920;6.536;2023-04-24T05:02:39;4.32;;;1.50;;
61015;SDS011;46902;52.920;6.536;2023-04-24T05:05:05;2.13;;;1.50;;
61015;SDS011;46902;52.920;6.536;2023-04-24T05:07:31;1.80;;;1.50;;
61015;SDS011;46902;52.920;6.536;2023-04-24T05:09:57;3.25;;;2.22;;
61015;SDS011;46902;52.920;6.536;2023-04-24T05:12:23;3.03;;;2.10;;
61015;SDS011;46902;52.920;6.536;2023-04-24T05:14:48;4.95;;;2.70;;
61015;SDS011;46902;52.920;6.536;2023-04-24T05:17:14;2.83;;;2.40;;
61015;SDS011;46902;52.920;6.536;2023-04-24T05:19:40;4.57;;;2.85;;
61015;SDS011;46902;52.920;6.536;2023-04-24T05:22:06;3.35;;;2.22;;
61015;SDS011;46902;52.920;6.536;2023-04-24T05:24:35;2.90;;;2.50;;
61015;SDS011;46902;52.920;6.536;2023-04-24T05:27:01;3.20;;;2.50;;
61015;SDS011;46902;52.920;6.536;2023-04-24T05:29:28;3.83;;;2.53;;
61015;SDS011;46902;52.920;6.536;2023-04-24T05:31:55;3.00;;;2.35;;
61015;SDS011;46902;52.920;6.536;2023-04-24T05:34:21;4.07;;;2.58;;
61015;SDS011;46902;52.920;6.536;2023-04-24T05:36:47;5.97;;;2.55;;
61015;SDS011;46902;52.920;6.536;2023-04-24T05:39:13;5.18;;;2.58;;
61015;SDS011;46902;52.920;6.536;2023-04-24T05:41:39;3.17;;;2.35;;
61015;SDS011;46902;52.920;6.536;2023-04-24T05:44:05;3.63;;;2.75;;
61015;SDS011;46902;52.920;6.536;2023-04-24T05:46:31;2.90;;;2.28;;
61015;SDS011;46902;52.920;6.536;2023-04-24T05:48:57;2.33;;;2.08;;
61015;SDS011;46902;52.920;6.536;2023-04-24T05:51:23;3.42;;;1.80;;
61015;SDS011;46902;52.920;6.536;2023-04-24T05:53:48;3.63;;;2.95;;
61015;SDS011;46902;52.920;6.536;2023-04-24T05:56:14;3.63;;;1.90;;
61015;SDS011;46902;52.920;6.536;2023-04-24T05:58:40;3.60;;;2.40;;
61015;SDS011;46902;52.920;6.536;2023-04-24T06:01:06;3.00;;;2.38;;
61015;SDS011;46902;52.920;6.536;2023-04-24T06:03:32;2.95;;;2.03;;
61015;SDS011;46902;52.920;6.536;2023-04-24T06:05:57;3.80;;;2.70;;
61015;SDS011;46902;52.920;6.536;2023-04-24T06:08:23;3.47;;;2.45;;
61015;SDS011;46902;52.920;6.536;2023-04-24T06:10:49;3.33;;;2.53;;
61015;SDS011;46902;52.920;6.536;2023-04-24T06:13:15;3.10;;;2.22;;
61015;SDS011;46902;52.920;6.536;2023-04-24T06:15:41;2.53;;;1.83;;
61015;SDS011;46902;52.920;6.536;2023-04-24T06:18:07;3.28;;;2.55;;
61015;SDS011;46902;52.920;6.536;2023-04-24T06:20:35;5.00;;;2.65;;
61015;SDS011;46902;52.920;6.536;2023-04-24T06:23:00;4.32;;;2.40;;
61015;SDS011;46902;52.920;6.536;2023-04-24T06:25:26;2.38;;;1.85;;
61015;SDS011;46902;52.920;6.536;2023-04-24T06:27:53;4.00;;;2.97;;
61015;SDS011;46902;52.920;6.536;2023-04-24T06:30:20;1.75;;;1.38;;
61015;SDS011;46902;52.920;6.536;2023-04-24T06:32:46;1.52;;;1.27;;
61015;SDS011;46902;52.920;6.536;2023-04-24T06:35:11;1.25;;;1.08;;
61015;SDS011;46902;52.920;6.536;2023-04-24T06:37:41;4.38;;;1.45;;
61015;SDS011;46902;52.920;6.536;2023-04-24T06:40:07;1.67;;;1.33;;
61015;SDS011;46902;52.920;6.536;2023-04-24T06:42:33;2.30;;;1.92;;
61015;SDS011;46902;52.920;6.536;2023-04-24T06:45:00;3.28;;;1.90;;
61015;SDS011;46902;52.920;6.536;2023-04-24T06:47:28;5.82;;;2.47;;
61015;SDS011;46902;52.920;6.536;2023-04-24T06:49:54;3.47;;;2.45;;
61015;SDS011;46902;52.920;6.536;2023-04-24T06:52:20;4.30;;;2.85;;
61015;SDS011;46902;52.920;6.536;2023-04-24T06:54:46;3.78;;;2.45;;
61015;SDS011;46902;52.920;6.536;2023-04-24T06:57:11;4.10;;;2.78;;
61015;SDS011;46902;52.920;6.536;2023-04-24T06:59:37;4.60;;;2.72;;
61015;SDS011;46902;52.920;6.536;2023-04-24T07:02:03;5.60;;;2.88;;
61015;SDS011;46902;52.920;6.536;2023-04-24T07:04:29;7.05;;;3.42;;
61015;SDS011;46902;52.920;6.536;2023-04-24T07:06:55;5.57;;;3.55;;
61015;SDS011;46902;52.920;6.536;2023-04-24T07:09:23;5.25;;;3.50;;
61015;SDS011;46902;52.920;6.536;2023-04-24T07:11:50;5.95;;;3.70;;
61015;SDS011;46902;52.920;6.536;2023-04-24T07:14:16;5.43;;;4.65;;
61015;SDS011;46902;52.920;6.536;2023-04-24T07:16:42;8.32;;;5.20;;
61015;SDS011;46902;52.920;6.536;2023-04-24T07:19:08;6.63;;;5.00;;
61015;SDS011;46902;52.920;6.536;2023-04-24T07:21:34;7.25;;;4.47;;
61015;SDS011;46902;52.920;6.536;2023-04-24T07:24:00;6.68;;;4.72;;
61015;SDS011;46902;52.920;6.536;2023-04-24T07:26:26;7.07;;;4.53;;
61015;SDS011;46902;52.920;6.536;2023-04-24T07:28:53;7.55;;;5.05;;
61015;SDS011;46902;52.920;6.536;2023-04-24T07:31:19;7.95;;;3.45;;
61015;SDS011;46902;52.920;6.536;2023-04-24T07:33:46;8.60;;;3.67;;
61015;SDS011;46902;52.920;6.536;2023-04-24T07:36:11;6.82;;;3.17;;
61015;SDS011;46902;52.920;6.536;2023-04-24T07:38:41;5.65;;;2.72;;
61015;SDS011;46902;52.920;6.536;2023-04-24T07:41:07;7.28;;;3.10;;
61015;SDS011;46902;52.920;6.536;2023-04-24T07:43:33;4.18;;;1.90;;
61015;SDS011;46902;52.920;6.536;2023-04-24T07:45:59;4.05;;;1.85;;
61015;SDS011;46902;52.920;6.536;2023-04-24T07:48:24;5.00;;;2.00;;
61015;SDS011;46902;52.920;6.536;2023-04-24T07:50:51;4.75;;;1.73;;
61015;SDS011;46902;52.920;6.536;2023-04-24T07:53:17;4.40;;;2.00;;
61015;SDS011;46902;52.920;6.536;2023-04-24T07:55:43;3.80;;;1.98;;
61015;SDS011;46902;52.920;6.536;2023-04-24T07:58:11;6.72;;;2.05;;
61015;SDS011;46902;52.920;6.536;2023-04-24T08:00:37;5.95;;;2.20;;
61015;SDS011;46902;52.920;6.536;2023-04-24T08:03:02;4.57;;;1.88;;
61015;SDS011;46902;52.920;6.536;2023-04-24T08:05:28;4.30;;;1.92;;
61015;SDS011;46902;52.920;6.536;2023-04-24T08:07:54;5.95;;;2.05;;
61015;SDS011;46902;52.920;6.536;2023-04-24T08:10:23;6.43;;;1.90;;
61015;SDS011;46902;52.920;6.536;2023-04-24T08:12:49;4.60;;;1.90;;
61015;SDS011;46902;52.920;6.536;2023-04-24T08:15:15;7.18;;;2.80;;
61015;SDS011;46902;52.920;6.536;2023-04-24T08:17:41;9.93;;;3.60;;
61015;SDS011;46902;52.920;6.536;2023-04-24T08:20:08;8.45;;;4.35;;
61015;SDS011;46902;52.920;6.536;2023-04-24T08:22:38;11.10;;;6.00;;
61015;SDS011;46902;52.920;6.536;2023-04-24T08:25:05;11.75;;;6.65;;
61015;SDS011;46902;52.920;6.536;2023-04-24T08:27:31;14.55;;;7.72;;
61015;SDS011;46902;52.920;6.536;2023-04-24T08:29:57;15.75;;;8.90;;
61015;SDS011;46902;52.920;6.536;2023-04-24T08:32:24;16.80;;;9.57;;
61015;SDS011;46902;52.920;6.536;2023-04-24T08:34:49;19.27;;;9.52;;
61015;SDS011;46902;52.920;6.536;2023-04-24T08:37:17;18.35;;;9.25;;
61015;SDS011;46902;52.920;6.536;2023-04-24T08:39:43;16.45;;;9.05;;
61015;SDS011;46902;52.920;6.536;2023-04-24T08:42:08;19.10;;;9.52;;
61015;SDS011;46902;52.920;6.536;2023-04-24T08:44:36;20.05;;;9.95;;
61015;SDS011;46902;52.920;6.536;2023-04-24T08:47:02;16.67;;;9.57;;
61015;SDS011;46902;52.920;6.536;2023-04-24T08:49:28;18.52;;;9.50;;
61015;SDS011;46902;52.920;6.536;2023-04-24T08:51:54;18.52;;;9.40;;
61015;SDS011;46902;52.920;6.536;2023-04-24T08:54:20;15.77;;;9.40;;
61015;SDS011;46902;52.920;6.536;2023-04-24T08:56:47;17.02;;;10.52;;
61015;SDS011;46902;52.920;6.536;2023-04-24T08:59:14;18.65;;;11.07;;
61015;SDS011;46902;52.920;6.536;2023-04-24T09:01:40;19.48;;;12.20;;
61015;SDS011;46902;52.920;6.536;2023-04-24T09:04:07;16.35;;;11.85;;
61015;SDS011;46902;52.920;6.536;2023-04-24T09:06:34;17.88;;;11.27;;
61015;SDS011;46902;52.920;6.536;2023-04-24T09:09:01;19.35;;;12.52;;
61015;SDS011;46902;52.920;6.536;2023-04-24T09:11:29;21.50;;;13.70;;
61015;SDS011;46902;52.920;6.536;2023-04-24T09:13:56;19.50;;;12.63;;
61015;SDS011;46902;52.920;6.536;2023-04-24T09:16:22;23.55;;;13.70;;
61015;SDS011;46902;52.920;6.536;2023-04-24T09:18:51;20.67;;;14.32;;
61015;SDS011;46902;52.920;6.536;2023-04-24T09:21:16;19.48;;;12.85;;
61015;SDS011;46902;52.920;6.536;2023-04-24T09:23:42;19.58;;;13.25;;
61015;SDS011;46902;52.920;6.536;2023-04-24T09:26:08;17.60;;;13.43;;
61015;SDS011;46902;52.920;6.536;2023-04-24T09:28:36;19.02;;;11.45;;
61015;SDS011;46902;52.920;6.536;2023-04-24T09:33:31;17.80;;;11.07;;
61015;SDS011;46902;52.920;6.536;2023-04-24T09:35:57;13.77;;;9.45;;
61015;SDS011;46902;52.920;6.536;2023-04-24T09:38:31;13.25;;;9.02;;
61015;SDS011;46902;52.920;6.536;2023-04-24T09:41:04;15.07;;;9.00;;
61015;SDS011;46902;52.920;6.536;2023-04-24T09:43:31;15.60;;;7.90;;
61015;SDS011;46902;52.920;6.536;2023-04-24T09:45:58;12.52;;;7.00;;
61015;SDS011;46902;52.920;6.536;2023-04-24T09:48:38;13.93;;;7.38;;
61015;SDS011;46902;52.920;6.536;2023-04-24T09:51:04;13.57;;;7.82;;
61015;SDS011;46902;52.920;6.536;2023-04-24T09:53:35;13.68;;;7.28;;
61015;SDS011;46902;52.920;6.536;2023-04-24T09:56:08;15.90;;;7.63;;
61015;SDS011;46902;52.920;6.536;2023-04-24T09:58:35;13.88;;;6.85;;
61015;SDS011;46902;52.920;6.536;2023-04-24T10:01:01;17.42;;;7.18;;
61015;SDS011;46902;52.920;6.536;2023-04-24T10:03:29;17.45;;;6.85;;
61015;SDS011;46902;52.920;6.536;2023-04-24T10:05:59;13.77;;;6.88;;
61015;SDS011;46902;52.920;6.536;2023-04-24T10:08:26;10.65;;;5.72;;
61015;SDS011;46902;52.920;6.536;2023-04-24T10:10:57;16.48;;;6.97;;
61015;SDS011;46902;52.920;6.536;2023-04-24T10:13:24;18.92;;;6.72;;
61015;SDS011;46902;52.920;6.536;2023-04-24T10:15:50;14.30;;;5.75;;
61015;SDS011;46902;52.920;6.536;2023-04-24T10:18:16;16.27;;;6.28;;
61015;SDS011;46902;52.920;6.536;2023-04-24T10:20:42;11.10;;;4.40;;
61015;SDS011;46902;52.920;6.536;2023-04-24T10:23:08;11.45;;;4.88;;
61015;SDS011;46902;52.920;6.536;2023-04-24T10:25:35;10.90;;;4.05;;
61015;SDS011;46902;52.920;6.536;2023-04-24T10:28:02;10.43;;;4.65;;
61015;SDS011;46902;52.920;6.536;2023-04-24T10:30:32;9.63;;;3.75;;
61015;SDS011;46902;52.920;6.536;2023-04-24T10:35:31;9.23;;;3.35;;
61015;SDS011;46902;52.920;6.536;2023-04-24T10:38:14;10.18;;;3.38;;
61015;SDS011;46902;52.920;6.536;2023-04-24T10:40:43;9.57;;;3.15;;
61015;SDS011;46902;52.920;6.536;2023-04-24T10:43:09;12.93;;;3.42;;
61015;SDS011;46902;52.920;6.536;2023-04-24T10:45:36;13.10;;;3.13;;
61015;SDS011;46902;52.920;6.536;2023-04-24T10:48:06;13.63;;;3.10;;
61015;SDS011;46902;52.920;6.536;2023-04-24T10:50:48;11.13;;;3.17;;
61015;SDS011;46902;52.920;6.536;2023-04-24T10:53:20;10.73;;;2.83;;
61015;SDS011;46902;52.920;6.536;2023-04-24T10:56:08;10.77;;;3.35;;
61015;SDS011;46902;52.920;6.536;2023-04-24T10:58:42;12.05;;;2.95;;
61015;SDS011;46902;52.920;6.536;2023-04-24T11:01:29;13.55;;;2.95;;
61015;SDS011;46902;52.920;6.536;2023-04-24T11:03:58;14.93;;;3.00;;
61015;SDS011;46902;52.920;6.536;2023-04-24T11:06:46;12.15;;;2.80;;
61015;SDS011;46902;52.920;6.536;2023-04-24T11:09:11;12.63;;;2.60;;
61015;SDS011;46902;52.920;6.536;2023-04-24T11:11:45;11.15;;;2.55;;
61015;SDS011;46902;52.920;6.536;2023-04-24T11:14:13;10.93;;;3.00;;
61015;SDS011;46902;52.920;6.536;2023-04-24T11:16:44;9.75;;;2.22;;
61015;SDS011;46902;52.920;6.536;2023-04-24T11:21:43;14.50;;;2.53;;
61015;SDS011;46902;52.920;6.536;2023-04-24T11:29:39;8.13;;;2.15;;
61015;SDS011;46902;52.920;6.536;2023-04-24T11:32:14;9.98;;;2.35;;
61015;SDS011;46902;52.920;6.536;2023-04-24T11:34:45;10.02;;;1.92;;
61015;SDS011;46902;52.920;6.536;2023-04-24T11:37:12;8.23;;;1.95;;
61015;SDS011;46902;52.920;6.536;2023-04-24T11:39:38;14.27;;;2.55;;
61015;SDS011;46902;52.920;6.536;2023-04-24T11:42:04;11.77;;;2.58;;
61015;SDS011;46902;52.920;6.536;2023-04-24T11:44:31;6.28;;;1.33;;
61015;SDS011;46902;52.920;6.536;2023-04-24T11:46:59;8.88;;;2.15;;
61015;SDS011;46902;52.920;6.536;2023-04-24T11:49:25;9.68;;;2.10;;
61015;SDS011;46902;52.920;6.536;2023-04-24T11:51:54;8.35;;;1.77;;
61015;SDS011;46902;52.920;6.536;2023-04-24T11:54:20;8.48;;;1.70;;
61015;SDS011;46902;52.920;6.536;2023-04-24T11:56:46;7.10;;;1.75;;
61015;SDS011;46902;52.920;6.536;2023-04-24T11:59:12;6.43;;;1.45;;
61015;SDS011;46902;52.920;6.536;2023-04-24T12:01:46;10.45;;;2.25;;
61015;SDS011;46902;52.920;6.536;2023-04-24T12:04:16;7.55;;;1.60;;
61015;SDS011;46902;52.920;6.536;2023-04-24T12:09:27;8.27;;;1.85;;
61015;SDS011;46902;52.920;6.536;2023-04-24T12:11:53;13.57;;;2.13;;
61015;SDS011;46902;52.920;6.536;2023-04-24T12:14:23;10.35;;;2.33;;
61015;SDS011;46902;52.920;6.536;2023-04-24T12:16:49;9.10;;;1.67;;
61015;SDS011;46902;52.920;6.536;2023-04-24T12:19:21;9.43;;;2.00;;
61015;SDS011;46902;52.920;6.536;2023-04-24T12:22:01;10.67;;;1.47;;
61015;SDS011;46902;52.920;6.536;2023-04-24T12:24:28;7.53;;;1.70;;
61015;SDS011;46902;52.920;6.536;2023-04-24T12:26:55;3.63;;;1.40;;
61015;SDS011;46902;52.920;6.536;2023-04-24T12:29:22;6.97;;;1.42;;
61015;SDS011;46902;52.920;6.536;2023-04-24T12:31:49;8.15;;;1.70;;
61015;SDS011;46902;52.920;6.536;2023-04-24T12:34:23;6.32;;;1.73;;
61015;SDS011;46902;52.920;6.536;2023-04-24T12:36:50;4.03;;;1.02;;
61015;SDS011;46902;52.920;6.536;2023-04-24T12:39:19;5.68;;;1.08;;
61015;SDS011;46902;52.920;6.536;2023-04-24T12:44:34;4.10;;;0.90;;
61015;SDS011;46902;52.920;6.536;2023-04-24T12:47:00;4.93;;;0.95;;
61015;SDS011;46902;52.920;6.536;2023-04-24T12:49:27;4.57;;;0.90;;
61015;SDS011;46902;52.920;6.536;2023-04-24T12:51:53;4.65;;;0.93;;
61015;SDS011;46902;52.920;6.536;2023-04-24T12:54:19;3.38;;;0.80;;
61015;SDS011;46902;52.920;6.536;2023-04-24T12:56:44;7.57;;;1.10;;
61015;SDS011;46902;52.920;6.536;2023-04-24T12:59:10;3.50;;;0.80;;
61015;SDS011;46902;52.920;6.536;2023-04-24T13:01:36;5.47;;;0.70;;
61015;SDS011;46902;52.920;6.536;2023-04-24T13:04:01;4.22;;;0.85;;
61015;SDS011;46902;52.920;6.536;2023-04-24T13:06:27;5.18;;;0.80;;
61015;SDS011;46902;52.920;6.536;2023-04-24T13:08:53;6.03;;;1.38;;
61015;SDS011;46902;52.920;6.536;2023-04-24T13:11:20;5.40;;;1.05;;
61015;SDS011;46902;52.920;6.536;2023-04-24T13:13:46;6.43;;;1.13;;
61015;SDS011;46902;52.920;6.536;2023-04-24T13:16:12;5.75;;;0.88;;
61015;SDS011;46902;52.920;6.536;2023-04-24T13:18:38;4.82;;;0.90;;
61015;SDS011;46902;52.920;6.536;2023-04-24T13:21:03;3.28;;;0.68;;
61015;SDS011;46902;52.920;6.536;2023-04-24T13:23:29;5.07;;;0.88;;
61015;SDS011;46902;52.920;6.536;2023-04-24T13:25:55;3.13;;;0.70;;
61015;SDS011;46902;52.920;6.536;2023-04-24T13:28:23;5.25;;;1.00;;
61015;SDS011;46902;52.920;6.536;2023-04-24T13:30:50;5.10;;;1.33;;
61015;SDS011;46902;52.920;6.536;2023-04-24T13:33:16;3.63;;;0.73;;
61015;SDS011;46902;52.920;6.536;2023-04-24T13:35:41;4.03;;;0.90;;
61015;SDS011;46902;52.920;6.536;2023-04-24T13:38:07;3.28;;;0.65;;
61015;SDS011;46902;52.920;6.536;2023-04-24T13:40:33;5.30;;;1.10;;
61015;SDS011;46902;52.920;6.536;2023-04-24T13:42:59;7.05;;;1.13;;
61015;SDS011;46902;52.920;6.536;2023-04-24T13:45:25;7.20;;;1.20;;
61015;SDS011;46902;52.920;6.536;2023-04-24T13:47:52;8.32;;;1.63;;
61015;SDS011;46902;52.920;6.536;2023-04-24T13:50:18;6.32;;;1.10;;
61015;SDS011;46902;52.920;6.536;2023-04-24T13:52:45;5.40;;;0.90;;
61015;SDS011;46902;52.920;6.536;2023-04-24T13:55:10;4.78;;;0.90;;
61015;SDS011;46902;52.920;6.536;2023-04-24T13:57:36;5.50;;;1.15;;
61015;SDS011;46902;52.920;6.536;2023-04-24T14:00:02;7.30;;;1.27;;
61015;SDS011;46902;52.920;6.536;2023-04-24T14:02:29;7.53;;;1.58;;
61015;SDS011;46902;52.920;6.536;2023-04-24T14:04:55;5.75;;;1.30;;
61015;SDS011;46902;52.920;6.536;2023-04-24T14:07:20;5.93;;;0.90;;
61015;SDS011;46902;52.920;6.536;2023-04-24T14:09:46;6.20;;;1.20;;
61015;SDS011;46902;52.920;6.536;2023-04-24T14:12:12;7.63;;;1.58;;
61015;SDS011;46902;52.920;6.536;2023-04-24T14:14:38;6.75;;;1.30;;
61015;SDS011;46902;52.920;6.536;2023-04-24T14:17:04;7.10;;;1.52;;
61015;SDS011;46902;52.920;6.536;2023-04-24T14:19:30;10.98;;;1.75;;
61015;SDS011;46902;52.920;6.536;2023-04-24T14:21:56;9.98;;;2.20;;
61015;SDS011;46902;52.920;6.536;2023-04-24T14:24:23;11.02;;;1.70;;
61015;SDS011;46902;52.920;6.536;2023-04-24T14:26:49;10.48;;;1.55;;
61015;SDS011;46902;52.920;6.536;2023-04-24T14:29:14;9.75;;;1.83;;
61015;SDS011;46902;52.920;6.536;2023-04-24T14:31:41;9.00;;;1.73;;
61015;SDS011;46902;52.920;6.536;2023-04-24T14:34:08;11.38;;;1.77;;
61015;SDS011;46902;52.920;6.536;2023-04-24T14:36:34;9.90;;;1.98;;
61015;SDS011;46902;52.920;6.536;2023-04-24T14:39:00;11.48;;;1.90;;
61015;SDS011;46902;52.920;6.536;2023-04-24T14:41:28;11.98;;;2.13;;
61015;SDS011;46902;52.920;6.536;2023-04-24T14:43:53;11.70;;;2.40;;
61015;SDS011;46902;52.920;6.536;2023-04-24T14:46:19;11.05;;;2.13;;
61015;SDS011;46902;52.920;6.536;2023-04-24T14:48:45;9.25;;;1.85;;
61015;SDS011;46902;52.920;6.536;2023-04-24T14:51:10;11.23;;;2.15;;
61015;SDS011;46902;52.920;6.536;2023-04-24T14:53:36;11.52;;;2.00;;
61015;SDS011;46902;52.920;6.536;2023-04-24T14:56:02;9.38;;;1.83;;
61015;SDS011;46902;52.920;6.536;2023-04-24T14:58:27;16.77;;;2.85;;